Terminal Aerodrome Forecast
Issued by NWS

Home | Current Version | Previous Version | Text Only | Print | Product List | Glossary On
Versions: 1 2 3 4 5 6 7 8 9 10 11 12 13 14 15 16 17 18 19 20 21 22 23 24
000
FTUS44 KEWX 261740
TAFSSF
TAF
KSSF 261740Z 2618/2718 15011KT P6SM SCT019 BKN023 OVC035
     FM262000 13007KT P6SM BKN035
     FM270600 13009KT P6SM OVC010
     FM270800 12007KT 5SM BR OVC004
     FM271600 17008KT P6SM BKN015
     FM271700 13012KT P6SM BKN040=

USA.gov is the U.S. government's official web portal to all federal, state and local government web resources and services.